x

Ilm2 - 5 Miles Se Of Wrightsville Beach, Nc (41038) Weather Station

11:00 - Sat 31st Jan 2015 All times are EST. -5 hours from GMT.

  • Wind
    9mph, 13mph gusts
  • Sea Temp 51°f
  • Ar Temp 48°f
  • Sea Pressure 1027.3mb
  • Ilm2 - 5 Miles Se Of Wrightsville Beach, Nc
  • Ilm2 - 5 Miles Se Of Wrightsville Beach, Nc

More Historic Weather Station data

Upgrade to MSW Pro to gain access to the past 30 days of data for over 8000 Wavebouys and Weather Stations around the globe.

Join Pro

Comparision Forecast

View Surf forecast
   
Sáb 01/31 11:00 9 13 mph 1027.3mb 51f 48f
10:00 9 11 mph 1027.4mb 51f 47f
9:00 9
mph
1027.7mb 51f 47f
8:00 11 13 mph 1027.8mb 51f 46f
7:00 11 13 mph 1027.6mb 51f 45f
6:00 11 13 mph 1027.3mb 51f 44f
5:00 7
mph
1026.9mb 51f 46f
4:00 4 7 mph 1026.8mb 52f 44f
3:00 7 9 mph 1026.9mb 52f 43f
2:00 2
mph
1027.4mb 52f 42f
1:00 4 7 mph 1028.1mb 51f 42f
12:00 9 11 mph 1028.5mb 51f 40f
11:00 11 13 mph 1028.8mb 51f 37f
10:00 16 18 mph 1028.6mb 51f 37f
9:00 20 25 mph 1028.2mb 51f 35f
8:00 22 25 mph 1027.4mb 51f 35f
7:00 20 22 mph 1027.2mb 51f 34f
6:00 22 27 mph 1026.3mb 51f 35f
5:00 25 29 mph 1026mb 51f 35f
4:00 25 29 mph 1025.9mb 51f 36f
3:00 18 20 mph 1025.6mb 51f 37f
2:00 22 27 mph 1025.2mb 51f 37f
1:00 20 25 mph 1025.1mb 51f 39f
12:00 22 29 mph 1025mb 51f 40f
Sex 01/30 11:00 20 25 mph 1024.4mb 52f 43f
10:00 22 27 mph 1023.6mb 52f 44f
9:00 20 25 mph 1023mb 52f 46f
8:00 20 25 mph 1021.8mb 52f 48f
7:00 18 20 mph 1021.1mb 52f 48f
6:00 18 20 mph 1020.2mb 52f 49f
5:00 18 25 mph 1019.1mb 52f 50f
4:00 27 31 mph 1018.3mb 52f 50f
3:00 18 22 mph 1017.6mb 52f 50f
2:00 22 29 mph 1017.3mb 52f 50f
1:00 22 25 mph 1017.1mb 52f 50f
12:00 25 27 mph 1017.2mb 52f 49f
11:00 25 29 mph 1017.4mb 52f 49f
10:00 25 29 mph 1017.1mb 52f 50f
9:00 20 25 mph 1016.2mb 52f 50f
8:00 20 22 mph 1014.9mb 52f 52f
7:00 16 18 mph 1014.5mb 52f 52f
6:00 16 18 mph 1014.4mb 52f 53f
5:00 13 16 mph 1014.8mb 52f 54f
4:00 16 18 mph 1015.5mb 52f 53f
3:00 16 18 mph 1016.3mb 52f 53f
2:00 16 18 mph 1017.6mb 52f 54f
1:00 16 20 mph 1018.7mb 52f 54f
12:00 16 20 mph 1019.1mb 52f 55f
Qui 01/29 11:00 16 20 mph 1019.2mb 52f 54f
10:00 9 13 mph 1020.3mb 52f 54f
9:00 11 13 mph 1021mb 52f 53f
8:00 16 18 mph 1021mb 52f 52f
7:00 11 13 mph 1021.9mb 52f 50f
6:00 11 16 mph 1022.7mb 52f 49f
5:00 11
mph
1023.5mb 52f 49f
4:00 9
mph
1023.8mb 52f 48f
3:00 9
mph
1024.3mb 53f 47f
2:00 4
mph
1024.8mb 53f 45f
1:00 2 4 mph 1026.2mb 52f 46f
12:00 2 4 mph 1027.2mb 52f 44f
11:00 7
mph
1028.2mb 52f 43f
10:00 7 9 mph 1028.9mb 52f 42f
9:00 9
mph
1028.6mb 52f 42f
8:00 7 9 mph 1028.6mb 52f 41f
7:00 11 13 mph 1027.8mb 52f 41f
6:00 9 13 mph 1027.3mb 52f 41f
5:00 13 16 mph 1026.6mb 52f 41f
4:00 9 11 mph 1026.6mb 52f 43f
3:00 11 13 mph 1026.8mb 52f 43f
2:00 11 13 mph 1027.1mb 52f 43f
1:00 11 16 mph 1027.2mb 52f 44f
12:00 13 16 mph 1026.8mb 52f 44f
Qua 01/28 11:00 11 16 mph 1027.1mb 52f 44f
10:00 11 16 mph 1026.7mb 52f 44f
9:00 13 16 mph 1026.5mb 53f 44f
8:00 16 22 mph 1026.2mb 53f 44f
7:00 13 18 mph 1025.5mb 53f 44f
6:00 18 20 mph 1024.8mb 53f 45f
5:00 16 20 mph 1024.1mb 53f 46f
4:00 13 16 mph 1022.9mb 53f 46f
3:00 11 13 mph 1022.4mb 53f 45f
2:00 13 18 mph 1022.1mb 53f 44f
1:00 18 22 mph 1022.1mb 53f 42f
12:00 20 22 mph 1022.7mb 53f 39f
11:00 16 20 mph 1023mb 53f 38f
10:00 22 27 mph 1022.6mb 53f 37f
9:00 22 29 mph 1021.9mb 53f 36f
8:00 22 29 mph 1020.9mb 53f 35f
7:00 22 27 mph 1019.7mb 52f 34f
6:00 22 27 mph 1018.8mb 53f 35f